Time;durP1;ratioP1;P1;durP2;ratioP2;P2;SDS_P1;SDS_P2;PMS_P1;PMS_P2;Temp;Humidity;BMP_temperature;BMP_pressure;BME280_temperature;BME280_humidity;BME280_pressure;Samples;Min_cycle;Max_cycle;Signal;HPM_P1;HPM_P2
2023/06/27 00:00:02;;;;;;;1.52;0.70;;;;;;;17.22;100.00;98452.09;15264159;19;20033;-52
2023/06/27 00:05:32;;;;;;;2.05;0.80;;;;;;;17.15;100.00;98462.13;15259851;19;20019;-53
2023/06/27 00:10:57;;;;;;;4.25;0.80;;;;;;;17.12;100.00;98470.69;15264285;19;20014;-50
2023/06/27 00:16:22;;;;;;;1.33;0.70;;;;;;;17.01;100.00;98467.50;15265323;19;20366;-53
2023/06/27 00:21:49;;;;;;;1.50;0.68;;;;;;;16.91;100.00;98478.72;15258860;19;20491;-50
2023/06/27 00:27:16;;;;;;;1.65;0.70;;;;;;;16.84;100.00;98475.13;15264593;19;20086;-52
2023/06/27 00:32:40;;;;;;;3.03;0.70;;;;;;;16.73;100.00;98484.69;15263682;19;20021;-50
2023/06/27 00:38:08;;;;;;;2.17;0.88;;;;;;;16.62;100.00;98485.25;15264562;19;20448;-51
2023/06/27 00:43:33;;;;;;;2.17;0.68;;;;;;;16.55;100.00;98493.34;15258893;19;20025;-51
2023/06/27 00:48:58;;;;;;;3.83;0.90;;;;;;;16.40;100.00;98482.59;15264420;19;20479;-52
2023/06/27 00:54:26;;;;;;;2.10;0.70;;;;;;;16.26;100.00;98489.81;15271756;19;20483;-54
2023/06/27 00:59:53;;;;;;;2.65;0.70;;;;;;;16.18;100.00;98500.81;15277571;19;20027;-53
2023/06/27 01:05:20;;;;;;;3.42;0.73;;;;;;;16.07;100.00;98507.63;15273986;19;20018;-53
2023/06/27 01:11:02;;;;;;;4.93;0.80;;;;;;;15.98;100.00;98506.91;15275665;19;20377;-51
2023/06/27 01:16:34;;;;;;;2.80;0.90;;;;;;;15.86;100.00;98511.16;15277518;19;20410;-55
2023/06/27 01:22:07;;;;;;;2.28;0.70;;;;;;;15.71;100.00;98517.44;15272805;19;20016;-52
2023/06/27 01:27:35;;;;;;;1.42;0.63;;;;;;;15.63;100.00;98523.00;15273580;19;20014;-50
2023/06/27 01:33:07;;;;;;;4.60;0.90;;;;;;;15.55;100.00;98532.09;15278629;19;20483;-55
2023/06/27 01:38:37;;;;;;;2.00;0.77;;;;;;;15.54;100.00;98535.84;15273022;19;20449;-48
2023/06/27 01:44:09;;;;;;;2.67;0.90;;;;;;;15.49;100.00;98526.59;15264226;19;20018;-50
2023/06/27 01:49:33;;;;;;;1.48;0.52;;;;;;;15.36;100.00;98528.13;15275062;19;20035;-46
2023/06/27 01:55:01;;;;;;;2.50;0.88;;;;;;;15.28;100.00;98525.50;15272780;19;20014;-44
2023/06/27 02:00:30;;;;;;;1.45;0.70;;;;;;;15.12;100.00;98523.84;15270713;19;20477;-46
2023/06/27 02:05:54;;;;;;;2.75;0.70;;;;;;;14.99;100.00;98534.53;15264855;19;20015;-46
2023/06/27 02:11:19;;;;;;;2.03;0.70;;;;;;;14.88;100.00;98536.66;15271161;19;20463;-48
2023/06/27 02:16:47;;;;;;;3.20;0.80;;;;;;;14.73;100.00;98547.50;15268504;19;20023;-44
2023/06/27 02:22:12;;;;;;;3.20;0.82;;;;;;;14.60;100.00;98558.13;15268698;19;20032;-46
2023/06/27 02:27:36;;;;;;;4.28;0.80;;;;;;;14.47;100.00;98556.88;15270798;19;20495;-46
2023/06/27 02:33:03;;;;;;;3.17;0.80;;;;;;;14.40;100.00;98558.63;15261473;19;20030;-46
2023/06/27 02:38:28;;;;;;;1.48;0.80;;;;;;;14.30;100.00;98558.03;15270969;19;20035;-46
2023/06/27 02:43:53;;;;;;;1.67;0.68;;;;;;;14.26;100.00;98565.69;15269508;19;20695;-50
2023/06/27 02:49:21;;;;;;;2.10;0.80;;;;;;;14.17;100.00;98570.31;15271673;19;20010;-44
2023/06/27 02:54:45;;;;;;;2.25;0.73;;;;;;;14.07;100.00;98575.13;15269533;19;20015;-44
2023/06/27 03:00:12;;;;;;;3.72;0.73;;;;;;;14.01;100.00;98584.00;15270263;19;20081;-50
2023/06/27 03:05:39;;;;;;;2.95;0.88;;;;;;;13.94;100.00;98583.84;15264628;19;20470;-48
2023/06/27 03:11:04;;;;;;;1.73;0.70;;;;;;;13.92;100.00;98585.06;15268279;19;20023;-51
2023/06/27 03:16:28;;;;;;;6.20;1.00;;;;;;;13.87;100.00;98588.31;15270160;19;20096;-46
2023/06/27 03:21:56;;;;;;;1.27;0.80;;;;;;;13.79;100.00;98591.91;15268368;19;20569;-48
2023/06/27 03:27:23;;;;;;;3.30;0.80;;;;;;;13.70;100.00;98593.81;15269808;19;20013;-48
2023/06/27 03:32:50;;;;;;;1.65;0.70;;;;;;;13.66;100.00;98600.59;15260455;19;20018;-47
2023/06/27 03:38:18;;;;;;;3.00;0.88;;;;;;;13.64;100.00;98596.38;15264969;19;20697;-51
2023/06/27 03:43:50;;;;;;;1.77;0.70;;;;;;;13.65;100.00;98601.59;15267417;19;20014;-46
2023/06/27 03:49:14;;;;;;;3.53;0.80;;;;;;;13.69;100.00;98591.28;15265097;19;20400;-48
2023/06/27 03:54:42;;;;;;;1.90;0.70;;;;;;;13.73;100.00;98598.03;15268466;19;20014;-47
2023/06/27 04:00:10;;;;;;;1.73;0.90;;;;;;;13.78;100.00;98601.06;15266887;19;20353;-48
2023/06/27 04:05:36;;;;;;;1.92;0.70;;;;;;;13.81;100.00;98599.84;15263133;19;20082;-49
2023/06/27 04:11:05;;;;;;;3.03;0.65;;;;;;;13.79;100.00;98602.75;15269122;19;20375;-50
2023/06/27 04:16:31;;;;;;;2.45;0.90;;;;;;;13.79;100.00;98608.16;15271647;19;20018;-50
2023/06/27 04:21:55;;;;;;;2.17;0.80;;;;;;;13.78;100.00;98613.72;15267025;19;20023;-49
2023/06/27 04:27:24;;;;;;;2.00;0.70;;;;;;;13.78;100.00;98621.84;15277039;19;20018;-49
2023/06/27 04:32:50;;;;;;;1.83;0.70;;;;;;;13.80;100.00;98617.97;15274366;19;20347;-46
2023/06/27 04:38:14;;;;;;;2.17;0.80;;;;;;;13.87;100.00;98621.66;15272342;19;20022;-46
2023/06/27 04:43:48;;;;;;;2.13;0.77;;;;;;;13.99;100.00;98632.06;15269473;19;20010;-46
2023/06/27 04:49:12;;;;;;;2.22;0.77;;;;;;;14.06;100.00;98632.22;15280169;19;20014;-46
2023/06/27 04:54:37;;;;;;;3.97;0.90;;;;;;;14.06;100.00;98624.91;15276827;19;20081;-49
2023/06/27 05:00:06;;;;;;;1.88;0.80;;;;;;;14.15;100.00;98629.28;15279481;19;20014;-45
2023/06/27 05:05:33;;;;;;;2.10;0.90;;;;;;;14.18;100.00;98631.59;15274293;19;20024;-46
2023/06/27 05:10:59;;;;;;;1.92;0.70;;;;;;;14.25;100.00;98641.75;15271643;19;20014;-46
2023/06/27 05:16:27;;;;;;;2.22;0.85;;;;;;;14.33;100.00;98638.97;15278843;19;20018;-49
2023/06/27 05:21:51;;;;;;;1.42;0.80;;;;;;;14.35;100.00;98642.34;15276467;19;20028;-48
2023/06/27 05:27:16;;;;;;;3.53;0.95;;;;;;;14.46;100.00;98643.81;15271639;19;20017;-47
2023/06/27 05:32:43;;;;;;;2.22;0.80;;;;;;;14.63;100.00;98639.09;15271077;19;20017;-46
2023/06/27 05:38:09;;;;;;;1.38;0.75;;;;;;;14.83;100.00;98635.91;15272974;19;20022;-46
2023/06/27 05:43:40;;;;;;;2.60;0.90;;;;;;;14.91;100.00;98638.53;15267257;19;20019;-46
2023/06/27 05:49:07;;;;;;;2.35;0.80;;;;;;;15.02;100.00;98648.94;15276968;19;20616;-46
2023/06/27 05:54:33;;;;;;;1.83;0.80;;;;;;;15.08;100.00;98642.78;15271153;19;20347;-45
2023/06/27 05:59:57;;;;;;;2.08;0.88;;;;;;;15.13;100.00;98644.94;15270725;19;20593;-47
2023/06/27 06:05:25;;;;;;;2.55;1.00;;;;;;;15.24;100.00;98643.63;15267890;19;20018;-48
2023/06/27 06:10:51;;;;;;;2.17;0.80;;;;;;;15.38;100.00;98642.78;15274275;19;20025;-47
2023/06/27 06:16:15;;;;;;;4.20;0.88;;;;;;;15.52;100.00;98642.97;15269380;19;20018;-47
2023/06/27 06:21:42;;;;;;;3.03;0.80;;;;;;;15.54;100.00;98644.47;15269478;19;20014;-47
2023/06/27 06:27:08;;;;;;;1.80;0.70;;;;;;;15.59;100.00;98645.78;15267770;19;20018;-46
2023/06/27 06:32:32;;;;;;;2.17;0.80;;;;;;;15.68;100.00;98650.94;15267711;19;20023;-47
2023/06/27 06:38:01;;;;;;;4.35;0.80;;;;;;;15.66;100.00;98655.72;15272337;19;20479;-48
2023/06/27 06:43:34;;;;;;;1.30;0.57;;;;;;;15.95;100.00;98654.00;15267806;19;20022;-46
2023/06/27 06:48:59;;;;;;;2.65;0.80;;;;;;;16.12;100.00;98648.34;15265540;19;20027;-46
2023/06/27 06:54:27;;;;;;;3.05;0.90;;;;;;;16.13;100.00;98645.44;15269929;19;20015;-48
2023/06/27 06:59:52;;;;;;;2.75;0.70;;;;;;;16.20;100.00;98637.34;15263737;19;20022;-48
2023/06/27 07:05:17;;;;;;;2.95;0.70;;;;;;;16.29;100.00;98638.91;15264264;19;20014;-46
2023/06/27 07:10:44;;;;;;;2.28;0.60;;;;;;;16.29;100.00;98635.38;15269179;19;20017;-49
2023/06/27 07:16:09;;;;;;;2.80;0.80;;;;;;;16.32;100.00;98637.72;15270149;19;20841;-47
2023/06/27 07:21:37;;;;;;;3.33;0.90;;;;;;;16.47;100.00;98629.47;15259021;19;20102;-48
2023/06/27 07:27:04;;;;;;;2.72;0.80;;;;;;;16.57;100.00;98621.84;15265603;19;20490;-48
2023/06/27 07:32:28;;;;;;;2.40;0.70;;;;;;;16.92;100.00;98631.97;15263972;19;20014;-48
2023/06/27 07:37:54;;;;;;;1.23;0.60;;;;;;;17.06;100.00;98622.88;15269761;19;20028;-47
2023/06/27 07:43:28;;;;;;;1.75;0.80;;;;;;;17.07;100.00;98613.69;15263241;19;20021;-84
2023/06/27 07:48:54;;;;;;;1.58;0.60;;;;;;;17.14;100.00;98621.91;15268049;19;20504;-84
2023/06/27 07:54:19;;;;;;;2.60;0.90;;;;;;;17.26;100.00;98619.47;15269476;19;20082;-84
2023/06/27 07:59:47;;;;;;;2.20;0.80;;;;;;;17.31;100.00;98621.59;15270939;19;20086;-83
2023/06/27 08:05:22;;;;;;;2.78;0.80;;;;;;;17.46;100.00;98613.28;15283691;19;20423;-85
2023/06/27 08:10:47;;;;;;;2.72;0.90;;;;;;;17.64;100.00;98610.84;15285968;19;20015;-85
2023/06/27 08:16:14;;;;;;;2.05;0.70;;;;;;;17.72;100.00;98596.22;15282066;19;20007;-85
2023/06/27 08:21:45;;;;;;;3.53;0.80;;;;;;;17.96;100.00;98596.72;15286732;19;20023;-85
2023/06/27 08:27:11;;;;;;;2.70;0.98;;;;;;;17.87;100.00;98601.53;15279019;19;20492;-85
2023/06/27 08:32:38;;;;;;;1.98;0.90;;;;;;;18.05;100.00;98590.06;15288382;19;20081;-87
2023/06/27 08:38:03;;;;;;;1.83;0.70;;;;;;;18.21;100.00;98585.28;15286309;19;20011;-84
2023/06/27 08:43:36;;;;;;;1.45;0.57;;;;;;;18.08;100.00;98599.75;15284276;19;20114;-86
2023/06/27 08:49:06;;;;;;;1.98;0.60;;;;;;;18.17;100.00;98572.06;15280630;19;20011;-84
2023/06/27 08:54:35;;;;;;;1.52;0.60;;;;;;;18.37;100.00;98571.28;15285513;19;20081;-84
2023/06/27 09:00:09;;;;;;;3.88;0.80;;;;;;;18.41;98.40;98575.25;15281427;19;20013;-84
2023/06/27 09:05:41;;;;;;;1.92;0.75;;;;;;;18.47;93.83;98576.28;15285345;19;20015;-84
2023/06/27 09:11:09;;;;;;;1.35;0.60;;;;;;;18.63;93.40;98570.44;15280006;19;20010;-85
2023/06/27 09:16:35;;;;;;;1.63;0.60;;;;;;;18.82;94.14;98577.97;15284992;19;20023;-84
2023/06/27 09:22:02;;;;;;;1.30;0.60;;;;;;;18.98;91.17;98579.47;15285478;19;20070;-84
2023/06/27 09:27:40;;;;;;;3.45;0.60;;;;;;;18.91;87.28;98555.72;15291125;19;20010;-86
2023/06/27 09:33:08;;;;;;;2.13;0.60;;;;;;;18.87;84.20;98586.41;15288461;19;20409;-84
2023/06/27 09:38:40;;;;;;;1.45;0.60;;;;;;;18.92;85.60;98562.00;15290216;19;20025;-85
2023/06/27 09:44:19;;;;;;;1.95;0.70;;;;;;;19.23;84.20;98546.84;15291848;19;20017;-86
2023/06/27 09:49:44;;;;;;;3.53;0.80;;;;;;;19.42;90.62;98552.47;15280470;19;20022;-85
2023/06/27 09:55:13;;;;;;;1.40;0.43;;;;;;;19.42;85.70;98566.13;15290000;19;20030;-85
2023/06/27 10:00:41;;;;;;;1.88;0.65;;;;;;;19.46;83.31;98559.19;15281511;19;20380;-85
2023/06/27 10:06:05;;;;;;;1.70;0.50;;;;;;;19.35;87.66;98552.50;15279698;19;20015;-86
2023/06/27 10:11:32;;;;;;;1.45;0.80;;;;;;;19.41;85.33;98554.34;15332042;19;20013;-88
2023/06/27 10:16:58;;;;;;;2.15;0.50;;;;;;;19.54;81.41;98548.00;15354840;19;20007;-88
2023/06/27 10:22:29;;;;;;;1.60;0.60;;;;;;;19.40;81.03;98547.25;15355341;19;20006;-87
2023/06/27 10:28:22;;;;;;;2.25;0.75;;;;;;;19.27;82.86;98556.28;15357690;19;20046;-88
2023/06/27 10:33:51;;;;;;;4.32;0.80;;;;;;;19.19;86.49;98542.88;15362363;19;20047;-89
2023/06/27 10:39:46;;;;;;;1.10;0.60;;;;;;;19.16;92.00;98543.31;15360619;19;20003;-88
2023/06/27 10:45:20;;;;;;;1.35;0.60;;;;;;;19.64;85.89;98536.63;15359037;19;20017;-89
2023/06/27 10:51:05;;;;;;;3.50;0.80;;;;;;;19.87;79.44;98533.38;15360414;19;20007;-87
2023/06/27 10:56:37;;;;;;;5.13;0.80;;;;;;;19.95;78.00;98541.31;15360794;19;20013;-88
2023/06/27 11:02:06;;;;;;;2.38;0.73;;;;;;;20.22;77.23;98530.19;15360526;19;20003;-89
2023/06/27 11:08:01;;;;;;;2.15;0.77;;;;;;;20.10;73.83;98516.41;15360232;19;20020;-90
2023/06/27 11:13:43;;;;;;;3.60;0.73;;;;;;;20.01;71.40;98521.31;15363421;19;20917;-88
2023/06/27 11:25:23;;;;;;;2.45;0.80;;;;;;;20.37;79.16;98499.78;15323658;19;19987;-89
2023/06/27 11:30:48;;;;;;;0.80;0.60;;;;;;;20.42;79.91;98488.16;15326574;19;20006;-84
2023/06/27 11:36:17;;;;;;;3.25;0.90;;;;;;;20.50;75.55;98493.38;15316155;19;20050;-85
2023/06/27 11:41:46;;;;;;;1.17;0.68;;;;;;;20.56;69.61;98495.19;15317432;19;20017;-88
2023/06/27 11:47:16;;;;;;;2.50;0.70;;;;;;;20.75;67.45;98485.16;15320951;19;20341;-83
2023/06/27 11:52:41;;;;;;;1.60;0.70;;;;;;;20.75;69.60;98474.19;15317430;19;20601;-85
2023/06/27 11:58:10;;;;;;;1.80;0.70;;;;;;;20.54;70.08;98469.13;15315824;19;20027;-85
2023/06/27 12:03:35;;;;;;;3.30;0.80;;;;;;;20.88;68.21;98470.47;15322830;19;20351;-86
2023/06/27 12:09:03;;;;;;;2.80;0.52;;;;;;;21.03;66.98;98452.84;15315817;19;20018;-85
2023/06/27 12:14:30;;;;;;;3.20;0.73;;;;;;;20.99;72.37;98452.47;15335540;19;20024;-86
2023/06/27 12:20:20;;;;;;;3.03;0.60;;;;;;;21.34;72.81;98459.22;15313058;19;20024;-89
2023/06/27 12:25:45;;;;;;;3.53;0.80;;;;;;;21.51;69.49;98446.53;15301390;19;20014;-82
2023/06/27 12:31:13;;;;;;;2.28;0.85;;;;;;;21.30;68.61;98439.63;15292705;19;20539;-83
2023/06/27 12:36:39;;;;;;;2.08;0.70;;;;;;;21.77;69.63;98455.47;15288014;19;20011;-83
2023/06/27 12:42:04;;;;;;;4.03;0.75;;;;;;;21.34;70.04;98456.47;15286883;19;20026;-90
2023/06/27 12:47:31;;;;;;;2.58;0.80;;;;;;;21.23;69.71;98456.16;15291196;19;20094;-85
2023/06/27 12:52:56;;;;;;;3.03;0.70;;;;;;;21.11;71.19;98452.50;15301490;19;20033;-86
2023/06/27 12:58:22;;;;;;;4.38;0.60;;;;;;;20.99;71.65;98437.94;15299577;19;20010;-83
2023/06/27 13:03:49;;;;;;;1.52;0.70;;;;;;;21.19;70.37;98449.47;15298133;19;20018;-85
2023/06/27 13:09:15;;;;;;;1.73;0.70;;;;;;;21.02;69.82;98441.06;15309959;19;20042;-88
2023/06/27 13:14:39;;;;;;;3.00;0.80;;;;;;;21.04;71.43;98436.19;15310572;19;20031;-85
2023/06/27 13:20:09;;;;;;;1.90;0.70;;;;;;;21.03;68.89;98423.56;15304409;19;20380;-89
2023/06/27 13:25:35;;;;;;;3.58;0.70;;;;;;;21.13;70.14;98428.47;15306218;19;20659;-87
2023/06/27 13:31:01;;;;;;;1.25;0.60;;;;;;;21.15;70.57;98420.88;15300924;19;20017;-83
2023/06/27 13:36:30;;;;;;;2.97;0.68;;;;;;;21.27;71.48;98411.88;15302449;19;20014;-85
2023/06/27 13:41:55;;;;;;;1.13;0.63;;;;;;;21.41;70.82;98407.88;15295254;19;20500;-84
2023/06/27 13:47:23;;;;;;;4.07;0.80;;;;;;;21.37;62.21;98406.66;15299033;19;20021;-84
2023/06/27 13:52:52;;;;;;;1.20;0.60;;;;;;;21.02;63.06;98426.50;15307499;19;20010;-82
2023/06/27 13:58:18;;;;;;;1.10;0.50;;;;;;;20.72;62.11;98419.03;15301861;19;20014;-86
2023/06/27 14:03:48;;;;;;;1.20;0.65;;;;;;;20.81;69.61;98406.75;15304995;19;20680;-84
2023/06/27 14:09:17;;;;;;;2.80;0.70;;;;;;;20.57;67.59;98431.19;15300990;19;20006;-82
2023/06/27 14:14:44;;;;;;;2.40;0.70;;;;;;;20.55;69.82;98416.06;15298862;19;20470;-81
2023/06/27 14:20:15;;;;;;;3.58;1.00;;;;;;;20.46;71.89;98410.03;15296569;19;20023;-82
2023/06/27 14:25:43;;;;;;;1.75;0.70;;;;;;;20.58;74.37;98400.03;15300384;19;20014;-83
2023/06/27 14:31:09;;;;;;;1.13;0.60;;;;;;;20.62;67.65;98395.78;15296422;19;20022;-85
2023/06/27 14:36:35;;;;;;;2.10;0.80;;;;;;;20.70;66.82;98385.56;15297345;19;20082;-84
2023/06/27 14:42:03;;;;;;;2.60;0.80;;;;;;;20.72;66.12;98386.19;15302138;19;20374;-83
2023/06/27 14:47:34;;;;;;;1.75;0.60;;;;;;;20.91;65.79;98382.41;15300374;19;20022;-89
2023/06/27 14:52:51;;;;;;;2.35;0.70;;;;;;;20.99;68.13;98383.16;15314697;19;20419;-87
2023/06/27 14:58:18;;;;;;;2.25;0.70;;;;;;;20.89;67.94;98379.03;15300300;19;20010;-84
2023/06/27 15:03:44;;;;;;;1.95;0.70;;;;;;;20.96;68.37;98386.34;15299855;19;20085;-84
2023/06/27 15:09:09;;;;;;;3.72;0.80;;;;;;;20.73;67.94;98376.91;15298552;19;20025;-89
2023/06/27 15:14:36;;;;;;;4.18;0.80;;;;;;;20.86;69.83;98379.53;15305256;19;20025;-87
2023/06/27 15:20:10;;;;;;;2.55;0.65;;;;;;;21.03;69.56;98378.88;15302681;19;20021;-84
2023/06/27 15:25:29;;;;;;;1.80;0.60;;;;;;;21.10;72.27;98374.16;15293696;19;20011;-83
2023/06/27 15:30:57;;;;;;;2.33;0.77;;;;;;;21.22;72.59;98371.47;15291905;19;20010;-85
2023/06/27 15:36:24;;;;;;;5.03;0.93;;;;;;;21.15;68.16;98368.81;15298319;19;20018;-82
2023/06/27 15:41:49;;;;;;;1.35;0.65;;;;;;;20.92;66.10;98372.28;15299021;19;20028;-84
2023/06/27 15:47:20;;;;;;;1.95;0.88;;;;;;;20.93;68.46;98358.38;15297419;19;20666;-85
2023/06/27 15:52:51;;;;;;;1.23;0.60;;;;;;;20.73;69.30;98352.28;15304796;19;20392;-90
2023/06/27 15:58:16;;;;;;;1.45;0.75;;;;;;;20.60;70.60;98356.84;15302214;19;20006;-85
2023/06/27 16:03:45;;;;;;;2.30;0.80;;;;;;;20.50;72.01;98353.81;15297576;19;20438;-89
2023/06/27 16:09:20;;;;;;;;;;;;;;;20.45;73.78;98357.22;15293474;19;20023;-86
2023/06/27 16:14:49;;;;;;;2.22;0.88;;;;;;;20.51;76.49;98350.00;15293590;19;20339;-86
2023/06/27 16:20:20;;;;;;;1.15;0.70;;;;;;;20.55;78.46;98350.38;15290978;19;20273;-89
2023/06/27 16:25:46;;;;;;;2.47;0.90;;;;;;;20.50;80.21;98348.31;15305921;19;20043;-88
2023/06/27 16:31:11;;;;;;;2.47;0.82;;;;;;;20.51;82.40;98340.94;15311160;19;20025;-85
2023/06/27 16:36:40;;;;;;;2.97;0.90;;;;;;;20.52;84.64;98346.19;15328833;19;20014;-87
2023/06/27 16:42:04;;;;;;;1.77;0.90;;;;;;;20.41;82.07;98344.19;15331631;19;20014;-87
2023/06/27 16:47:30;;;;;;;2.63;0.90;;;;;;;20.38;82.77;98350.16;15313840;19;20014;-84
2023/06/27 16:52:58;;;;;;;3.95;0.75;;;;;;;20.26;78.38;98339.09;15325936;19;20677;-85
2023/06/27 16:58:34;;;;;;;0.65;0.60;;;;;;;20.22;79.78;98340.63;15311556;19;20098;-87
2023/06/27 17:03:59;;;;;;;2.05;0.88;;;;;;;20.18;83.58;98351.16;15318005;19;20082;-86
2023/06/27 17:09:27;;;;;;;2.28;0.90;;;;;;;20.04;80.92;98344.19;15319155;19;20011;-84
2023/06/27 17:15:16;;;;;;;1.48;0.77;;;;;;;19.93;81.75;98352.06;15320952;19;20010;-86
2023/06/27 17:20:55;;;;;;;2.75;0.85;;;;;;;19.85;82.17;98369.53;15330552;19;20094;-86
2023/06/27 17:26:38;;;;;;;3.78;1.00;;;;;;;19.73;86.42;98368.59;15325325;19;20014;-86
2023/06/27 17:32:08;;;;;;;2.22;0.90;;;;;;;19.58;90.61;98368.06;15333671;19;20015;-85
2023/06/27 17:37:51;;;;;;;2.00;0.90;;;;;;;19.49;94.49;98364.75;15311131;19;20025;-85
2023/06/27 17:43:57;;;;;;;2.17;0.90;;;;;;;19.27;94.16;98364.28;15310018;19;20029;-85
2023/06/27 17:49:36;;;;;;;4.57;0.87;;;;;;;19.18;96.85;98380.06;15314807;19;20013;-86
2023/06/27 17:55:13;;;;;;;2.20;0.70;;;;;;;19.04;96.12;98385.59;15315001;19;20038;-86
2023/06/27 18:00:47;;;;;;;1.75;0.70;;;;;;;18.95;94.14;98397.81;15300020;19;20097;-87
2023/06/27 18:12:10;;;;;;;2.28;0.80;;;;;;;18.82;92.80;98404.13;15305432;19;20023;-85
2023/06/27 18:17:47;;;;;;;1.25;0.77;;;;;;;18.73;93.88;98417.19;15306598;19;20462;-84
2023/06/27 18:23:12;;;;;;;2.08;0.80;;;;;;;18.64;94.01;98408.41;15306462;19;20015;-86
2023/06/27 18:28:37;;;;;;;1.38;0.70;;;;;;;18.61;92.16;98414.28;15307939;19;20408;-85
2023/06/27 18:34:06;;;;;;;3.75;0.65;;;;;;;18.54;92.96;98412.59;15303778;19;20015;-85
2023/06/27 18:39:31;;;;;;;2.72;0.70;;;;;;;18.43;93.50;98412.22;15311541;19;20022;-88
2023/06/27 18:44:56;;;;;;;2.65;0.65;;;;;;;18.31;93.12;98408.44;15292779;19;20006;-85
2023/06/27 18:50:25;;;;;;;2.55;0.70;;;;;;;18.31;93.55;98413.91;15295828;19;20042;-87
2023/06/27 18:55:50;;;;;;;1.58;0.68;;;;;;;18.23;97.77;98414.13;15296912;19;20081;-86
2023/06/27 19:01:17;;;;;;;1.88;0.70;;;;;;;18.10;99.30;98409.53;15295373;19;20361;-84
2023/06/27 19:06:50;;;;;;;3.67;0.80;;;;;;;18.01;100.00;98417.09;15292504;19;20022;-83
2023/06/27 19:12:16;;;;;;;1.00;0.77;;;;;;;17.94;100.00;98408.88;15295366;19;20022;-85
2023/06/27 19:17:41;;;;;;;3.40;0.70;;;;;;;17.89;100.00;98419.53;15280989;19;20026;-88
2023/06/27 19:23:09;;;;;;;3.45;0.82;;;;;;;17.83;100.00;98418.50;15297031;19;20023;-87
2023/06/27 19:28:35;;;;;;;1.77;0.80;;;;;;;17.79;100.00;98428.16;15293463;19;20479;-87
2023/06/27 19:33:59;;;;;;;1.63;0.70;;;;;;;17.60;100.00;98439.84;15292041;19;20029;-87
2023/06/27 19:39:27;;;;;;;2.40;0.90;;;;;;;17.34;100.00;98444.19;15291590;19;20011;-87
2023/06/27 19:44:52;;;;;;;1.98;0.70;;;;;;;17.15;100.00;98437.63;15293617;19;20010;-86
2023/06/27 19:50:17;;;;;;;2.83;0.90;;;;;;;16.86;100.00;98451.28;15295929;19;20483;-85
2023/06/27 19:55:44;;;;;;;1.70;0.70;;;;;;;16.68;100.00;98443.66;15306639;19;20055;-84
2023/06/27 20:01:12;;;;;;;2.88;0.70;;;;;;;16.51;100.00;98455.88;15304687;19;20019;-86
2023/06/27 20:06:37;;;;;;;1.40;0.70;;;;;;;16.48;100.00;98459.84;15329612;19;20453;-88
2023/06/27 20:12:05;;;;;;;2.13;0.85;;;;;;;16.40;100.00;98462.72;15333954;19;20432;-87
2023/06/27 20:17:30;;;;;;;1.70;0.70;;;;;;;16.24;100.00;98459.25;15300687;19;20110;-88
2023/06/27 20:22:56;;;;;;;2.47;0.50;;;;;;;16.17;100.00;98471.94;15300137;19;20025;-85
2023/06/27 20:28:23;;;;;;;0.77;0.60;;;;;;;16.12;100.00;98460.81;15309150;19;20022;-87
2023/06/27 20:33:48;;;;;;;1.52;0.70;;;;;;;16.00;100.00;98469.50;15303726;19;20054;-85
2023/06/27 20:39:12;;;;;;;0.93;0.55;;;;;;;15.86;100.00;98479.44;15293575;19;20015;-86
2023/06/27 20:44:48;;;;;;;1.70;0.70;;;;;;;15.77;100.00;98468.84;15297120;19;20378;-86
2023/06/27 20:50:13;;;;;;;1.25;0.63;;;;;;;15.72;100.00;98470.25;15295298;19;20023;-87
2023/06/27 20:55:37;;;;;;;0.73;0.60;;;;;;;15.64;100.00;98475.81;15290839;19;20464;-85
2023/06/27 21:01:06;;;;;;;2.15;0.65;;;;;;;15.56;100.00;98481.38;15285577;19;20014;-86
2023/06/27 21:06:30;;;;;;;1.08;0.60;;;;;;;15.48;100.00;98482.34;15290711;19;20023;-83
2023/06/27 21:11:56;;;;;;;1.15;0.60;;;;;;;15.35;100.00;98482.16;15297023;19;20023;-88
2023/06/27 21:17:27;;;;;;;1.88;0.65;;;;;;;15.20;100.00;98477.59;15284549;19;20721;-87
2023/06/27 21:22:53;;;;;;;1.00;0.57;;;;;;;15.08;100.00;98482.69;15288918;19;20025;-85
2023/06/27 21:28:17;;;;;;;1.38;0.60;;;;;;;14.93;100.00;98484.56;14770701;19;10000750;-84
2023/06/27 21:33:45;;;;;;;1.55;0.70;;;;;;;14.77;100.00;98496.44;15286316;19;20482;-88
2023/06/27 21:39:11;;;;;;;1.23;0.68;;;;;;;14.60;100.00;98487.63;15284860;19;20017;-86
2023/06/27 21:44:36;;;;;;;2.55;0.70;;;;;;;14.42;100.00;98486.09;15287937;19;20025;-87
2023/06/27 21:50:07;;;;;;;2.78;0.80;;;;;;;14.32;100.00;98504.47;15284428;19;20022;-86
2023/06/27 21:55:32;;;;;;;0.88;0.68;;;;;;;14.17;100.00;98509.88;15289290;19;20018;-88
2023/06/27 22:00:57;;;;;;;4.80;0.80;;;;;;;14.06;100.00;98505.72;15280258;19;20609;-86
2023/06/27 22:06:27;;;;;;;1.23;0.80;;;;;;;13.99;100.00;98489.34;15288941;19;20489;-86
2023/06/27 22:12:02;;;;;;;2.58;0.90;;;;;;;13.95;100.00;98498.00;15286137;19;20359;-86
2023/06/27 22:17:27;;;;;;;1.38;0.90;;;;;;;13.90;100.00;98490.44;15291675;19;20034;-85
2023/06/27 22:22:54;;;;;;;2.67;1.15;;;;;;;13.84;100.00;98486.59;15290977;19;20366;-86
2023/06/27 22:28:20;;;;;;;2.05;0.88;;;;;;;13.83;100.00;98495.72;15293271;19;20014;-88
2023/06/27 22:33:47;;;;;;;2.00;0.80;;;;;;;13.75;100.00;98498.50;15299158;19;20476;-90
2023/06/27 22:39:15;;;;;;;1.95;0.80;;;;;;;13.73;100.00;98492.44;15297774;19;20018;-86
2023/06/27 22:44:46;;;;;;;1.52;0.77;;;;;;;13.71;100.00;98499.88;15322480;19;20434;-86
2023/06/27 22:50:12;;;;;;;1.37;0.80;;;;;;;13.67;100.00;98502.09;15300037;19;20581;-86
2023/06/27 22:55:40;;;;;;;1.77;0.90;;;;;;;13.66;100.00;98503.13;15284139;19;20296;-86
2023/06/27 23:01:05;;;;;;;2.22;0.90;;;;;;;13.62;100.00;98495.56;15286816;19;20074;-89
2023/06/27 23:06:51;;;;;;;1.88;0.90;;;;;;;13.55;100.00;98495.41;15289780;19;20016;-90
2023/06/27 23:12:20;;;;;;;1.52;0.85;;;;;;;13.47;100.00;98490.91;15300526;19;20093;-88
2023/06/27 23:17:48;;;;;;;1.48;0.90;;;;;;;13.38;100.00;98491.94;15280399;19;20014;-87
2023/06/27 23:23:16;;;;;;;2.63;1.02;;;;;;;13.30;100.00;98497.41;15285685;19;20018;-85
2023/06/27 23:29:00;;;;;;;1.65;0.95;;;;;;;13.24;100.00;98496.25;15283779;19;20427;-87
2023/06/27 23:34:26;;;;;;;2.45;1.00;;;;;;;13.17;100.00;98495.28;15283259;19;20022;-88
2023/06/27 23:39:51;;;;;;;2.10;0.85;;;;;;;13.08;100.00;98491.75;15266779;19;20014;-52
2023/06/27 23:45:19;;;;;;;1.65;1.00;;;;;;;13.02;100.00;98495.16;15265823;19;20012;-54
2023/06/27 23:50:43;;;;;;;1.23;0.90;;;;;;;12.92;100.00;98492.66;15267172;19;20021;-50
2023/06/27 23:56:09;;;;;;;1.83;0.90;;;;;;;12.87;100.00;98487.78;15267631;19;20018;-49
